Time;durP1;ratioP1;P1;durP2;ratioP2;P2;SDS_P1;SDS_P2;PMS_P1;PMS_P2;Temp;Humidity;BMP_temperature;BMP_pressure;BME280_temperature;BME280_humidity;BME280_pressure;Samples;Min_cycle;Max_cycle;Signal;HPM_P1;HPM_P2
2023/01/14 00:01:02;;;;;;;0.50;0.50;;;4.10;99.90;;;;;;5045934;28;20053;-75
2023/01/14 00:03:28;;;;;;;0.75;0.70;;;4.10;99.90;;;;;;5047433;28;20029;-75
2023/01/14 00:05:56;;;;;;;0.95;0.93;;;4.10;99.90;;;;;;5044456;28;20130;-76
2023/01/14 00:08:21;;;;;;;1.20;1.10;;;4.10;99.90;;;;;;5049193;28;20036;-75
2023/01/14 00:10:47;;;;;;;1.15;1.13;;;4.10;99.90;;;;;;5046545;28;20033;-75
2023/01/14 00:13:13;;;;;;;0.93;0.82;;;4.00;99.90;;;;;;5048539;28;20572;-75
2023/01/14 00:15:38;;;;;;;1.20;1.10;;;4.00;99.90;;;;;;5048250;28;20051;-76
2023/01/14 00:18:04;;;;;;;0.65;0.65;;;3.90;99.90;;;;;;5049080;28;20040;-75
2023/01/14 00:20:30;;;;;;;0.85;0.85;;;3.90;99.90;;;;;;5049195;28;20051;-75
2023/01/14 00:22:56;;;;;;;2.70;1.17;;;3.90;99.90;;;;;;5054702;28;20025;-75
2023/01/14 00:25:22;;;;;;;7.25;0.85;;;3.90;99.90;;;;;;5046498;28;20043;-75
2023/01/14 00:27:47;;;;;;;0.60;0.60;;;3.90;99.90;;;;;;5047431;28;20029;-75
2023/01/14 00:30:13;;;;;;;1.10;0.80;;;3.80;99.90;;;;;;5045770;28;20032;-75
2023/01/14 00:32:38;;;;;;;0.68;0.68;;;3.80;99.90;;;;;;5046681;28;20106;-75
2023/01/14 00:35:04;;;;;;;2.00;1.00;;;3.70;99.90;;;;;;5049314;28;20048;-75
2023/01/14 00:37:30;;;;;;;0.60;0.60;;;3.70;99.90;;;;;;5031859;28;20017;-75
2023/01/14 00:39:55;;;;;;;1.08;1.02;;;3.70;99.90;;;;;;5049033;28;20075;-75
2023/01/14 00:42:21;;;;;;;1.55;1.13;;;3.60;99.90;;;;;;5049649;28;20037;-75
2023/01/14 00:44:46;;;;;;;0.77;0.77;;;3.60;99.90;;;;;;5046327;28;20163;-77
2023/01/14 00:47:12;;;;;;;1.95;0.77;;;3.70;99.90;;;;;;5049835;28;20399;-75
2023/01/14 00:49:38;;;;;;;1.10;1.10;;;3.70;99.90;;;;;;5046584;28;20036;-75
2023/01/14 00:52:04;;;;;;;0.68;0.55;;;3.70;99.90;;;;;;5045420;28;20037;-75
2023/01/14 00:54:31;;;;;;;1.45;0.80;;;3.70;99.90;;;;;;5047318;28;20041;-75
2023/01/14 00:56:56;;;;;;;2.63;1.63;;;3.70;99.90;;;;;;5047984;28;20032;-76
2023/01/14 00:59:23;;;;;;;1.35;1.35;;;3.60;99.90;;;;;;5048134;28;20613;-75
2023/01/14 01:01:51;;;;;;;0.88;0.88;;;3.60;99.90;;;;;;5050959;28;20060;-75
2023/01/14 01:04:18;;;;;;;1.00;1.00;;;3.60;99.90;;;;;;5045170;28;20067;-75
2023/01/14 01:06:43;;;;;;;1.75;0.57;;;3.70;99.90;;;;;;5048666;28;20068;-75
2023/01/14 01:09:09;;;;;;;0.60;0.60;;;3.70;99.90;;;;;;5049051;28;20140;-75
2023/01/14 01:11:35;;;;;;;2.88;1.23;;;3.60;99.90;;;;;;5045284;28;20589;-75
2023/01/14 01:14:01;;;;;;;0.98;0.63;;;3.70;99.90;;;;;;5046106;28;20047;-75
2023/01/14 01:16:27;;;;;;;0.57;0.57;;;3.70;99.90;;;;;;5045982;28;20408;-75
2023/01/14 01:18:54;;;;;;;1.33;0.80;;;3.60;99.90;;;;;;5044700;28;20041;-75
2023/01/14 01:21:21;;;;;;;3.65;0.75;;;3.70;99.90;;;;;;5046195;28;20036;-76
2023/01/14 01:23:47;;;;;;;3.33;1.00;;;3.70;99.90;;;;;;5046402;28;20448;-76
2023/01/14 01:26:18;;;;;;;0.90;0.90;;;3.70;99.90;;;;;;5048226;28;20025;-75
2023/01/14 01:28:48;;;;;;;0.73;0.70;;;3.70;99.90;;;;;;5046827;28;20060;-75
2023/01/14 01:31:14;;;;;;;2.45;1.10;;;3.70;99.90;;;;;;5061321;28;20056;-75
2023/01/14 01:33:40;;;;;;;0.80;0.80;;;3.80;99.90;;;;;;5066141;28;20029;-75
2023/01/14 01:36:16;;;;;;;1.95;1.13;;;3.90;99.90;;;;;;5072245;28;20083;-76
2023/01/14 01:38:43;;;;;;;0.80;0.80;;;3.90;99.90;;;;;;5066340;28;20033;-75
2023/01/14 01:41:15;;;;;;;1.77;1.13;;;4.00;99.90;;;;;;5064351;28;20029;-75
2023/01/14 01:44:02;;;;;;;2.72;1.15;;;4.00;99.90;;;;;;5065019;28;20029;-75
2023/01/14 01:46:30;;;;;;;0.50;0.50;;;4.10;99.90;;;;;;5063744;28;20536;-75
2023/01/14 01:49:03;;;;;;;2.47;0.70;;;4.10;99.90;;;;;;5063768;28;20032;-75
2023/01/14 01:51:35;;;;;;;0.57;0.57;;;4.20;99.90;;;;;;5060004;28;20040;-75
2023/01/14 01:54:02;;;;;;;0.70;0.70;;;4.20;99.90;;;;;;5059655;28;20020;-76
2023/01/14 01:56:31;;;;;;;1.35;0.85;;;4.20;99.90;;;;;;5065479;28;20036;-77
2023/01/14 01:58:58;;;;;;;0.95;0.95;;;4.20;99.90;;;;;;5065352;28;20100;-74
2023/01/14 02:01:24;;;;;;;2.58;1.08;;;4.10;99.90;;;;;;5082051;28;20048;-84
2023/01/14 02:03:51;;;;;;;0.68;0.68;;;4.10;99.90;;;;;;5093288;28;20039;-84
2023/01/14 02:06:17;;;;;;;2.50;0.95;;;4.10;99.90;;;;;;5088624;28;20029;-84
2023/01/14 02:08:46;;;;;;;0.98;0.80;;;4.10;99.90;;;;;;5095141;28;20032;-83
2023/01/14 02:11:37;;;;;;;9.05;1.15;;;4.10;99.90;;;;;;5089854;28;20063;-83
2023/01/14 02:14:18;;;;;;;2.47;1.00;;;4.20;99.90;;;;;;5089194;28;20044;-84
2023/01/14 02:17:08;;;;;;;0.75;0.75;;;4.30;99.90;;;;;;5088309;28;20063;-84
2023/01/14 02:20:03;;;;;;;1.25;0.80;;;4.40;99.90;;;;;;5083440;28;20037;-84
2023/01/14 02:22:50;;;;;;;3.50;1.50;;;4.40;99.90;;;;;;5073731;28;20044;-83
2023/01/14 02:25:24;;;;;;;1.42;1.33;;;4.40;99.90;;;;;;5087991;28;20033;-83
2023/01/14 02:28:07;;;;;;;0.77;0.75;;;4.50;99.90;;;;;;5086432;28;20032;-83
2023/01/14 02:31:11;;;;;;;2.95;0.70;;;4.50;99.90;;;;;;5085036;28;20044;-83
2023/01/14 02:33:52;;;;;;;1.55;0.95;;;4.50;99.90;;;;;;5087819;28;20024;-83
2023/01/14 02:36:41;;;;;;;0.80;0.80;;;4.60;99.90;;;;;;5088520;28;20028;-83
2023/01/14 02:39:37;;;;;;;0.50;0.50;;;4.70;99.90;;;;;;5087272;28;20024;-83
2023/01/14 02:45:23;;;;;;;0.60;0.60;;;4.80;99.90;;;;;;5087734;28;20043;-84
2023/01/14 02:47:50;;;;;;;1.05;0.98;;;4.80;99.90;;;;;;5079412;28;20035;-83
2023/01/14 02:50:16;;;;;;;0.85;0.85;;;4.80;99.90;;;;;;5085921;28;20499;-84
2023/01/14 02:52:42;;;;;;;1.35;1.20;;;4.80;99.90;;;;;;5091164;28;20066;-84
2023/01/14 02:55:27;;;;;;;0.40;0.40;;;4.80;99.90;;;;;;5087165;28;20032;-84
2023/01/14 02:58:31;;;;;;;1.85;1.13;;;4.80;99.90;;;;;;5086244;28;20055;-84
2023/01/14 03:01:05;;;;;;;2.08;1.05;;;4.80;99.90;;;;;;5064208;28;20117;-84
2023/01/14 03:03:43;;;;;;;1.17;1.10;;;4.80;99.90;;;;;;5071914;28;20033;-84
2023/01/14 03:06:23;;;;;;;1.23;1.13;;;4.80;99.90;;;;;;5064001;28;21029;-84
2023/01/14 03:09:21;;;;;;;0.77;0.77;;;4.80;99.90;;;;;;5066476;28;20025;-83
2023/01/14 03:11:56;;;;;;;2.80;1.00;;;4.80;99.90;;;;;;5046315;28;20051;-84
2023/01/14 03:14:32;;;;;;;0.80;0.80;;;4.90;99.90;;;;;;5069030;28;20025;-84
2023/01/14 03:17:26;;;;;;;0.70;0.70;;;4.90;99.90;;;;;;5065961;28;20044;-84
2023/01/14 03:20:24;;;;;;;0.60;0.60;;;4.90;99.90;;;;;;5068495;28;20067;-83
2023/01/14 03:22:52;;;;;;;0.70;0.70;;;4.90;99.90;;;;;;5060782;28;20052;-84
2023/01/14 03:25:20;;;;;;;1.73;1.10;;;4.80;99.90;;;;;;5068863;28;20465;-84
2023/01/14 03:27:48;;;;;;;1.40;1.00;;;4.90;99.90;;;;;;5068916;28;20025;-84
2023/01/14 03:30:24;;;;;;;1.50;1.50;;;4.90;99.90;;;;;;5072781;28;20041;-84
2023/01/14 03:33:10;;;;;;;1.70;0.93;;;4.90;99.90;;;;;;5069665;28;20041;-84
2023/01/14 03:35:39;;;;;;;1.10;1.10;;;4.90;99.90;;;;;;5064488;28;20033;-84
2023/01/14 03:38:31;;;;;;;0.45;0.45;;;4.90;99.90;;;;;;5071222;28;20028;-84
2023/01/14 03:40:59;;;;;;;1.08;0.88;;;4.90;99.90;;;;;;5075183;28;20029;-83
2023/01/14 03:43:31;;;;;;;1.95;1.85;;;4.90;99.90;;;;;;5069856;28;20037;-84
2023/01/14 03:45:57;;;;;;;2.10;0.82;;;4.90;99.90;;;;;;5068981;28;20005;-83
2023/01/14 03:48:23;;;;;;;2.50;0.90;;;4.90;99.90;;;;;;5074955;28;20037;-83
2023/01/14 03:51:14;;;;;;;0.88;0.88;;;4.90;99.90;;;;;;5073376;28;20044;-84
2023/01/14 03:53:49;;;;;;;1.15;0.88;;;4.90;99.90;;;;;;5072617;28;20044;-84
2023/01/14 03:56:20;;;;;;;2.17;0.70;;;4.90;99.90;;;;;;5071043;28;20032;-83
2023/01/14 03:59:09;;;;;;;0.82;0.60;;;4.90;99.90;;;;;;5071047;28;20062;-84
2023/01/14 04:01:46;;;;;;;1.85;1.02;;;4.90;99.90;;;;;;5090762;28;20061;-83
2023/01/14 04:04:12;;;;;;;0.77;0.70;;;4.90;99.90;;;;;;5089340;28;20032;-83
2023/01/14 04:06:38;;;;;;;0.88;0.88;;;4.90;99.90;;;;;;5087156;28;20039;-84
2023/01/14 04:09:06;;;;;;;1.83;0.63;;;4.80;99.90;;;;;;5086883;28;20088;-83
2023/01/14 04:11:31;;;;;;;0.70;0.70;;;4.90;99.90;;;;;;5093467;28;20044;-84
2023/01/14 04:16:41;;;;;;;0.60;0.60;;;4.80;99.90;;;;;;5089839;28;20036;-84
2023/01/14 04:19:07;;;;;;;0.77;0.75;;;4.80;99.90;;;;;;5092582;28;20129;-84
2023/01/14 04:21:32;;;;;;;0.70;0.70;;;4.80;99.90;;;;;;5092807;28;20028;-84
2023/01/14 04:23:58;;;;;;;1.65;0.60;;;4.80;99.90;;;;;;5091157;28;20060;-84
2023/01/14 04:26:23;;;;;;;0.75;0.63;;;4.80;99.90;;;;;;5092136;28;20029;-84
2023/01/14 04:28:49;;;;;;;0.70;0.70;;;4.70;99.90;;;;;;5089194;28;20115;-82
2023/01/14 04:31:14;;;;;;;1.25;0.50;;;4.70;99.90;;;;;;5089746;28;20037;-83
2023/01/14 04:33:40;;;;;;;3.08;0.85;;;4.70;99.90;;;;;;5093561;28;20071;-84
2023/01/14 04:36:07;;;;;;;3.20;0.95;;;4.70;99.90;;;;;;5095765;28;20064;-83
2023/01/14 04:38:32;;;;;;;1.13;0.85;;;4.60;99.90;;;;;;5092298;28;20135;-84
2023/01/14 04:40:58;;;;;;;0.88;0.70;;;4.60;99.90;;;;;;5096455;28;20054;-84
2023/01/14 04:43:24;;;;;;;2.15;1.17;;;4.50;99.90;;;;;;5093751;28;20032;-83
2023/01/14 04:45:51;;;;;;;0.60;0.60;;;4.40;99.90;;;;;;5091341;28;20029;-83
2023/01/14 04:48:18;;;;;;;2.20;0.80;;;4.50;99.90;;;;;;5098832;28;20032;-84
2023/01/14 04:50:46;;;;;;;1.20;0.75;;;4.40;99.90;;;;;;5089196;28;20045;-84
2023/01/14 04:53:15;;;;;;;0.60;0.60;;;4.50;99.90;;;;;;5093915;28;20037;-84
2023/01/14 04:55:43;;;;;;;4.03;1.23;;;4.40;99.90;;;;;;5087057;28;20044;-83
2023/01/14 04:58:10;;;;;;;2.30;1.48;;;4.40;99.90;;;;;;5088648;28;20139;-83
2023/01/14 05:00:37;;;;;;;2.42;1.48;;;4.40;99.90;;;;;;5075748;28;20123;-83
2023/01/14 05:03:08;;;;;;;1.83;1.40;;;4.40;99.90;;;;;;5064936;28;20033;-83
2023/01/14 05:05:35;;;;;;;2.08;1.27;;;4.40;99.90;;;;;;5062498;28;20310;-82
2023/01/14 05:08:02;;;;;;;2.35;1.20;;;4.30;99.90;;;;;;5069377;28;20037;-84
2023/01/14 05:10:27;;;;;;;3.65;1.38;;;4.30;99.90;;;;;;5064190;28;20033;-84
2023/01/14 05:12:56;;;;;;;3.35;1.52;;;4.30;99.90;;;;;;5058898;28;20292;-83
2023/01/14 05:15:28;;;;;;;2.97;1.00;;;4.30;99.90;;;;;;5070747;28;20056;-84
2023/01/14 05:17:54;;;;;;;1.20;1.10;;;4.30;99.90;;;;;;5073543;28;20032;-84
2023/01/14 05:20:20;;;;;;;0.70;0.70;;;4.20;99.90;;;;;;5069178;28;20028;-84
2023/01/14 05:22:46;;;;;;;1.85;1.00;;;4.00;99.90;;;;;;5068372;28;20087;-83
2023/01/14 05:25:12;;;;;;;1.00;1.00;;;3.90;99.90;;;;;;5066055;28;20037;-83
2023/01/14 05:27:37;;;;;;;3.75;1.10;;;3.90;99.90;;;;;;5061650;28;20036;-84
2023/01/14 05:30:04;;;;;;;1.17;1.17;;;3.90;99.90;;;;;;5058863;28;20029;-83
2023/01/14 05:32:29;;;;;;;2.63;1.10;;;3.90;99.90;;;;;;5065645;28;20037;-84
2023/01/14 05:34:55;;;;;;;1.10;1.08;;;3.90;99.90;;;;;;5066580;28;21571;-83
2023/01/14 05:37:21;;;;;;;2.30;1.10;;;3.90;99.90;;;;;;5069697;28;20036;-84
2023/01/14 05:39:46;;;;;;;2.60;1.27;;;3.90;99.90;;;;;;5070145;28;20048;-83
2023/01/14 05:47:40;;;;;;;2.33;2.13;;;3.90;99.90;;;;;;5069473;28;20500;-84
2023/01/14 05:50:08;;;;;;;3.13;2.00;;;3.80;99.90;;;;;;5066145;28;20040;-83
2023/01/14 05:52:33;;;;;;;3.17;1.30;;;3.80;99.90;;;;;;5071707;28;20033;-84
2023/01/14 05:54:59;;;;;;;3.30;1.20;;;3.80;99.90;;;;;;5068534;28;20877;-84
2023/01/14 05:57:25;;;;;;;1.13;1.10;;;3.70;99.90;;;;;;5072079;28;20033;-83
2023/01/14 05:59:50;;;;;;;2.67;1.27;;;3.50;99.90;;;;;;5072782;28;20045;-83
2023/01/14 06:07:44;;;;;;;1.77;1.15;;;3.00;99.90;;;;;;5063313;28;20049;-84
2023/01/14 06:10:10;;;;;;;1.55;0.80;;;3.00;99.90;;;;;;5063410;28;20045;-84
2023/01/14 06:12:57;;;;;;;1.48;1.02;;;3.10;99.90;;;;;;5063373;28;20084;-84
2023/01/14 06:15:21;;;;;;;4.05;2.00;;;3.10;99.90;;;;;;5065659;28;20055;-85
2023/01/14 06:17:56;;;;;;;2.58;2.08;;;3.10;99.90;;;;;;5066561;28;20033;-85
2023/01/14 06:20:22;;;;;;;2.38;1.85;;;3.20;99.90;;;;;;5066479;28;20029;-86
2023/01/14 06:22:47;;;;;;;5.50;1.85;;;3.10;99.90;;;;;;5068943;28;20044;-85
2023/01/14 06:25:13;;;;;;;5.57;2.20;;;3.20;99.90;;;;;;5069360;28;20032;-85
2023/01/14 06:27:39;;;;;;;2.53;2.33;;;3.20;99.90;;;;;;5070752;28;20052;-86
2023/01/14 06:30:05;;;;;;;3.75;2.03;;;3.20;99.90;;;;;;5066381;28;20086;-85
2023/01/14 06:32:33;;;;;;;3.08;1.70;;;3.20;99.90;;;;;;5064301;28;20030;-85
2023/01/14 06:34:59;;;;;;;2.33;2.03;;;3.30;99.90;;;;;;5065000;28;20093;-85
2023/01/14 06:37:24;;;;;;;2.88;1.85;;;3.30;99.90;;;;;;5075138;28;20075;-86
2023/01/14 06:39:50;;;;;;;6.80;2.40;;;3.30;99.90;;;;;;5067543;28;20042;-86
2023/01/14 06:42:15;;;;;;;7.60;2.55;;;3.30;99.90;;;;;;5067179;28;20029;-85
2023/01/14 06:44:41;;;;;;;2.80;2.38;;;3.30;99.90;;;;;;5050631;28;20037;-85
2023/01/14 06:47:06;;;;;;;3.15;2.38;;;3.20;99.90;;;;;;5061857;28;20021;-85
2023/01/14 06:49:32;;;;;;;6.15;2.67;;;3.20;99.90;;;;;;5064142;28;20088;-85
2023/01/14 06:51:57;;;;;;;3.72;2.28;;;3.30;99.90;;;;;;5061515;28;20033;-85
2023/01/14 06:54:23;;;;;;;3.28;2.38;;;3.30;99.90;;;;;;5066822;28;20063;-85
2023/01/14 06:56:49;;;;;;;5.40;2.78;;;3.20;99.90;;;;;;5068036;28;20036;-85
2023/01/14 06:59:14;;;;;;;3.13;2.70;;;3.20;99.90;;;;;;5061108;28;20078;-84
2023/01/14 07:01:40;;;;;;;7.43;2.97;;;3.10;99.90;;;;;;5088662;28;20043;-84
2023/01/14 07:04:05;;;;;;;9.50;3.22;;;3.10;99.90;;;;;;5088775;28;20039;-85
2023/01/14 07:06:31;;;;;;;8.80;3.03;;;3.10;99.90;;;;;;5087939;28;20114;-86
2023/01/14 07:08:56;;;;;;;9.50;2.85;;;3.10;99.90;;;;;;5090715;28;20068;-85
2023/01/14 07:11:22;;;;;;;2.45;1.88;;;3.10;99.90;;;;;;5093575;28;20035;-85
2023/01/14 07:13:47;;;;;;;7.28;2.58;;;3.10;99.90;;;;;;5083598;28;20041;-85
2023/01/14 07:16:13;;;;;;;2.08;1.73;;;3.10;99.90;;;;;;5087000;28;20111;-85
2023/01/14 07:18:38;;;;;;;3.85;1.80;;;3.10;99.90;;;;;;5080291;28;20040;-84
2023/01/14 07:21:04;;;;;;;3.05;1.58;;;3.10;99.90;;;;;;5105697;28;20040;-85
2023/01/14 07:23:30;;;;;;;2.17;1.52;;;3.00;99.90;;;;;;5091963;28;20088;-86
2023/01/14 07:25:56;;;;;;;5.20;1.92;;;3.10;99.90;;;;;;5091455;28;20039;-85
2023/01/14 07:28:27;;;;;;;2.03;1.50;;;3.00;99.90;;;;;;5087743;28;20044;-85
2023/01/14 07:30:52;;;;;;;3.95;1.85;;;2.90;99.90;;;;;;5089877;28;20056;-85
2023/01/14 07:33:20;;;;;;;1.48;1.38;;;2.90;99.90;;;;;;5083563;28;20032;-85
2023/01/14 07:35:51;;;;;;;2.55;1.65;;;3.00;99.90;;;;;;5091426;28;20040;-85
2023/01/14 07:38:17;;;;;;;4.50;1.67;;;2.90;99.90;;;;;;5081627;28;20029;-85
2023/01/14 07:40:42;;;;;;;6.57;1.70;;;2.90;99.90;;;;;;5078801;28;20720;-79
2023/01/14 07:43:08;;;;;;;4.15;1.55;;;2.90;99.90;;;;;;5089597;28;20031;-79
2023/01/14 07:45:34;;;;;;;2.33;1.20;;;2.80;99.90;;;;;;5095733;28;20074;-79
2023/01/14 07:48:00;;;;;;;2.47;1.30;;;2.60;99.90;;;;;;5089068;28;20055;-79
2023/01/14 07:50:25;;;;;;;3.88;1.77;;;2.70;99.90;;;;;;5083598;28;20044;-79
2023/01/14 07:52:56;;;;;;;4.85;1.52;;;2.60;99.90;;;;;;5085553;28;20424;-79
2023/01/14 07:55:22;;;;;;;1.52;1.42;;;2.60;99.90;;;;;;5087435;28;20052;-79
2023/01/14 07:57:48;;;;;;;2.10;1.25;;;2.60;99.90;;;;;;5089869;28;20039;-79
2023/01/14 08:00:14;;;;;;;3.63;1.88;;;2.60;99.90;;;;;;5088294;28;20102;-80
2023/01/14 08:02:40;;;;;;;1.88;1.60;;;2.60;99.90;;;;;;5085950;28;20051;-80
2023/01/14 08:05:06;;;;;;;2.47;1.60;;;2.70;99.90;;;;;;5084193;28;20056;-81
2023/01/14 08:07:32;;;;;;;3.65;1.60;;;2.60;99.90;;;;;;5080620;28;20033;-80
2023/01/14 08:09:57;;;;;;;3.88;1.70;;;2.70;99.90;;;;;;5094125;28;20063;-80
2023/01/14 08:12:23;;;;;;;1.73;1.63;;;2.70;99.90;;;;;;5088313;28;20043;-80
2023/01/14 08:14:49;;;;;;;8.48;1.92;;;2.70;99.90;;;;;;5081468;28;20500;-80
2023/01/14 08:17:15;;;;;;;3.00;1.50;;;2.70;99.90;;;;;;5087657;28;20044;-80
2023/01/14 08:19:40;;;;;;;4.20;2.10;;;2.70;99.90;;;;;;5092701;28;20055;-80
2023/01/14 08:22:06;;;;;;;3.10;1.55;;;2.60;99.90;;;;;;5085105;28;20040;-79
2023/01/14 08:24:31;;;;;;;1.92;1.60;;;2.60;99.90;;;;;;5087777;28;20039;-79
2023/01/14 08:26:57;;;;;;;5.15;1.38;;;2.60;99.90;;;;;;5093689;28;20028;-79
2023/01/14 08:29:23;;;;;;;12.43;1.80;;;2.70;99.90;;;;;;5084244;28;20028;-79
2023/01/14 08:31:51;;;;;;;1.67;1.58;;;2.70;99.90;;;;;;5085384;28;20063;-80
2023/01/14 08:34:17;;;;;;;7.72;1.95;;;2.70;99.90;;;;;;5091306;28;20045;-79
2023/01/14 08:36:44;;;;;;;2.00;1.48;;;2.70;99.90;;;;;;5092299;28;20033;-78
2023/01/14 08:39:09;;;;;;;3.60;2.13;;;2.80;99.90;;;;;;5095535;28;20040;-79
2023/01/14 08:41:35;;;;;;;3.97;1.60;;;2.90;99.90;;;;;;5094209;28;20058;-79
2023/01/14 08:44:01;;;;;;;2.78;1.70;;;2.90;99.90;;;;;;5092186;28;20530;-79
2023/01/14 08:46:26;;;;;;;1.80;1.67;;;2.90;99.90;;;;;;5098014;28;20051;-79
2023/01/14 08:48:52;;;;;;;3.83;1.92;;;2.90;99.90;;;;;;5095544;28;20039;-79
2023/01/14 08:51:18;;;;;;;2.92;2.00;;;2.90;99.90;;;;;;5096924;28;20041;-79
2023/01/14 08:53:44;;;;;;;3.15;1.83;;;3.00;99.90;;;;;;5089802;28;20061;-79
2023/01/14 08:56:15;;;;;;;6.28;2.28;;;3.10;99.90;;;;;;5091058;28;20012;-79
2023/01/14 08:58:41;;;;;;;4.22;2.30;;;3.10;99.90;;;;;;5078185;28;20033;-79
2023/01/14 09:01:08;;;;;;;2.78;2.33;;;3.20;99.90;;;;;;5086735;28;20105;-79
2023/01/14 09:03:35;;;;;;;4.28;2.13;;;3.20;99.90;;;;;;5089252;28;20038;-79
2023/01/14 09:06:04;;;;;;;3.77;2.33;;;3.30;99.90;;;;;;5090882;28;20009;-79
2023/01/14 09:17:04;;;;;;;6.38;2.13;;;3.60;99.90;;;;;;5088607;28;20039;-79
2023/01/14 09:19:33;;;;;;;6.13;3.70;;;3.70;99.90;;;;;;5084047;28;20079;-79
2023/01/14 09:21:58;;;;;;;6.65;3.13;;;3.80;99.90;;;;;;5083542;28;20032;-76
2023/01/14 09:24:24;;;;;;;7.20;3.00;;;3.80;99.90;;;;;;5080773;28;20078;-76
2023/01/14 09:26:50;;;;;;;5.57;3.45;;;3.90;99.90;;;;;;5080307;28;20032;-76
2023/01/14 09:29:15;;;;;;;10.30;3.75;;;4.00;99.90;;;;;;5077236;28;20035;-76
2023/01/14 09:31:41;;;;;;;4.25;2.75;;;4.10;99.90;;;;;;5077434;28;20048;-76
2023/01/14 09:34:07;;;;;;;3.40;2.17;;;4.10;99.90;;;;;;5083530;28;20053;-75
2023/01/14 09:36:32;;;;;;;7.40;3.03;;;4.30;99.90;;;;;;5086011;28;20537;-75
2023/01/14 09:38:58;;;;;;;5.05;2.50;;;4.40;99.90;;;;;;5076688;28;20559;-76
2023/01/14 09:41:36;;;;;;;3.90;2.63;;;4.40;99.90;;;;;;5082211;28;20119;-76
2023/01/14 09:44:05;;;;;;;7.53;2.60;;;4.60;99.90;;;;;;5076535;28;20041;-75
2023/01/14 09:46:32;;;;;;;7.13;3.20;;;4.70;99.90;;;;;;5078303;28;20032;-76
2023/01/14 09:49:01;;;;;;;6.65;2.08;;;4.80;99.90;;;;;;5065573;28;20028;-75
2023/01/14 09:51:36;;;;;;;8.70;2.17;;;4.90;99.90;;;;;;5087686;28;20415;-76
2023/01/14 09:54:22;;;;;;;8.13;3.00;;;5.00;99.90;;;;;;5075104;28;20028;-76
2023/01/14 09:57:03;;;;;;;3.58;1.95;;;5.10;99.90;;;;;;5079506;28;20036;-76
2023/01/14 09:59:53;;;;;;;3.35;2.42;;;5.20;99.90;;;;;;5079340;28;20150;-76
2023/01/14 10:02:27;;;;;;;6.18;2.15;;;5.30;99.90;;;;;;5076228;28;20051;-76
2023/01/14 10:05:04;;;;;;;7.03;3.00;;;5.40;99.90;;;;;;5083466;28;20100;-76
2023/01/14 10:07:31;;;;;;;8.30;2.73;;;5.50;99.90;;;;;;5076844;28;20151;-76
2023/01/14 10:09:58;;;;;;;4.10;2.00;;;5.60;99.90;;;;;;5082178;28;20289;-75
2023/01/14 10:12:45;;;;;;;6.13;2.13;;;5.70;99.90;;;;;;5086397;28;20399;-76
2023/01/14 10:15:19;;;;;;;4.75;1.60;;;5.80;99.90;;;;;;5075828;28;20016;-76
2023/01/14 10:17:51;;;;;;;4.28;2.20;;;6.00;99.90;;;;;;5080827;28;20454;-76
2023/01/14 10:20:37;;;;;;;3.60;2.10;;;6.00;99.90;;;;;;5082646;28;20099;-76
2023/01/14 10:23:14;;;;;;;3.63;1.88;;;6.10;99.90;;;;;;5078183;28;20078;-77
2023/01/14 10:25:48;;;;;;;3.78;1.92;;;6.20;99.90;;;;;;5081861;28;20032;-76
2023/01/14 10:28:16;;;;;;;5.28;2.17;;;6.30;99.90;;;;;;5081648;28;20025;-76
2023/01/14 10:30:42;;;;;;;4.72;1.70;;;6.40;99.90;;;;;;5078335;28;20024;-76
2023/01/14 10:33:13;;;;;;;3.88;1.30;;;6.50;99.90;;;;;;5081308;28;20116;-76
2023/01/14 10:35:42;;;;;;;3.38;1.20;;;6.60;99.90;;;;;;5082617;28;20035;-75
2023/01/14 10:38:15;;;;;;;0.60;0.60;;;6.70;99.90;;;;;;5086615;28;20043;-76
2023/01/14 10:40:41;;;;;;;1.40;1.30;;;6.80;99.90;;;;;;5082459;28;20075;-76
2023/01/14 10:43:18;;;;;;;6.68;1.88;;;6.90;99.90;;;;;;5079171;28;20025;-76
2023/01/14 10:45:44;;;;;;;1.60;1.08;;;7.00;99.90;;;;;;5082371;28;20044;-76
2023/01/14 10:48:17;;;;;;;1.17;1.17;;;7.00;99.90;;;;;;5081011;28;20024;-75
2023/01/14 10:50:43;;;;;;;1.98;0.80;;;7.00;99.90;;;;;;5080955;28;20024;-75
2023/01/14 10:53:24;;;;;;;2.92;0.90;;;7.10;99.90;;;;;;5087366;28;20021;-75
2023/01/14 10:55:54;;;;;;;3.10;1.05;;;7.20;99.90;;;;;;5083307;28;20008;-76
2023/01/14 10:58:41;;;;;;;8.10;1.25;;;7.30;99.90;;;;;;5086194;28;20031;-76
2023/01/14 11:01:08;;;;;;;2.25;1.30;;;7.30;99.90;;;;;;5081847;28;20040;-76
2023/01/14 11:03:39;;;;;;;3.05;1.65;;;7.30;99.90;;;;;;5078491;28;20830;-76
2023/01/14 11:06:10;;;;;;;6.70;1.50;;;7.20;99.90;;;;;;5076773;28;20036;-75
2023/01/14 11:08:39;;;;;;;1.33;1.08;;;7.30;99.90;;;;;;5081192;28;20005;-76
2023/01/14 11:11:12;;;;;;;3.13;1.35;;;7.30;99.90;;;;;;5089213;28;20032;-80
2023/01/14 11:13:48;;;;;;;2.97;1.00;;;7.30;99.90;;;;;;5091170;28;20016;-80
2023/01/14 11:16:24;;;;;;;4.43;1.10;;;7.40;99.90;;;;;;5074283;28;20009;-80
2023/01/14 11:18:56;;;;;;;11.88;4.80;;;7.50;99.90;;;;;;5090693;28;20085;-80
2023/01/14 11:21:23;;;;;;;5.95;2.67;;;7.50;99.90;;;;;;5086304;28;21188;-80
2023/01/14 11:24:07;;;;;;;15.55;6.30;;;7.50;99.90;;;;;;5078650;28;20021;-80
2023/01/14 11:26:37;;;;;;;32.17;15.23;;;7.60;99.90;;;;;;5086292;28;20039;-76
2023/01/14 11:29:19;;;;;;;11.57;5.68;;;7.70;99.90;;;;;;5078900;28;20032;-78
2023/01/14 11:31:47;;;;;;;14.85;8.48;;;7.70;99.90;;;;;;5083611;28;20040;-79
2023/01/14 11:34:29;;;;;;;3.07;1.33;;;7.80;99.90;;;;;;5087397;28;20025;-79
2023/01/14 11:37:24;;;;;;;4.28;1.92;;;7.90;99.90;;;;;;5081067;28;20298;-79
2023/01/14 11:39:58;;;;;;;28.95;19.17;;;7.90;99.90;;;;;;5074608;28;20040;-79
2023/01/14 11:42:34;;;;;;;5.88;1.70;;;8.00;99.90;;;;;;5086762;28;20035;-79
2023/01/14 11:45:16;;;;;;;11.52;7.65;;;8.10;99.90;;;;;;5084301;28;20168;-79
2023/01/14 11:47:49;;;;;;;4.32;3.00;;;8.10;99.90;;;;;;5089658;28;20025;-79
2023/01/14 11:50:21;;;;;;;6.10;4.32;;;8.20;99.90;;;;;;5088221;28;20028;-76
2023/01/14 11:53:16;;;;;;;12.52;8.68;;;8.30;99.90;;;;;;5084123;28;20033;-75
2023/01/14 11:55:45;;;;;;;16.33;9.00;;;8.40;99.90;;;;;;5080571;28;20040;-75
2023/01/14 11:58:25;;;;;;;3.08;2.10;;;8.50;99.90;;;;;;5085403;28;20024;-82
2023/01/14 12:00:54;;;;;;;1.80;0.90;;;8.60;99.90;;;;;;5086771;28;20044;-81
2023/01/14 12:03:57;;;;;;;2.53;1.13;;;8.70;99.90;;;;;;5089502;28;20082;-81
2023/01/14 12:06:26;;;;;;;3.13;0.98;;;8.80;99.90;;;;;;5084471;28;20036;-81
2023/01/14 12:09:00;;;;;;;2.22;1.20;;;8.90;98.40;;;;;;5081673;28;20090;-90
2023/01/14 12:11:39;;;;;;;2.13;1.30;;;8.90;99.60;;;;;;5090154;28;20051;-79
2023/01/14 12:17:01;;;;;;;2.00;1.17;;;9.00;99.90;;;;;;5079417;28;20058;-86
2023/01/14 12:19:45;;;;;;;2.88;1.42;;;9.10;95.70;;;;;;5085889;28;20032;-84
2023/01/14 12:22:17;;;;;;;1.55;1.20;;;9.10;99.90;;;;;;5089543;28;20029;-85
2023/01/14 12:24:57;;;;;;;1.75;1.42;;;9.20;98.70;;;;;;5094750;28;20033;-84
2023/01/14 12:27:42;;;;;;;4.25;0.98;;;9.20;94.10;;;;;;5088370;28;20042;-84
2023/01/14 12:30:36;;;;;;;1.20;0.70;;;9.30;92.60;;;;;;5085309;28;20004;-83
2023/01/14 12:33:12;;;;;;;0.40;0.40;;;9.30;97.80;;;;;;5074542;28;20044;-84
2023/01/14 12:36:04;;;;;;;2.05;1.00;;;9.40;97.40;;;;;;5091917;28;20036;-80
2023/01/14 12:47:27;;;;;;;3.35;0.80;;;9.50;94.00;;;;;;5087952;28;20043;-84
2023/01/14 12:49:53;;;;;;;3.00;1.00;;;9.50;95.60;;;;;;5094858;28;20036;-83
2023/01/14 12:52:29;;;;;;;1.63;0.70;;;9.50;93.50;;;;;;5087970;28;20078;-83
2023/01/14 12:54:56;;;;;;;1.55;1.00;;;9.50;93.50;;;;;;5085859;28;20024;-84
2023/01/14 12:57:24;;;;;;;2.63;1.00;;;9.50;93.80;;;;;;5084524;28;20036;-84
2023/01/14 13:00:07;;;;;;;1.17;0.77;;;9.50;92.10;;;;;;5102842;28;20071;-84
2023/01/14 13:02:40;;;;;;;2.42;0.75;;;9.50;94.10;;;;;;5088749;28;20029;-84
2023/01/14 13:05:13;;;;;;;1.60;1.02;;;9.60;93.70;;;;;;5091920;28;20086;-83
2023/01/14 13:07:58;;;;;;;1.98;0.88;;;9.50;92.10;;;;;;5087759;28;20024;-84
2023/01/14 13:10:30;;;;;;;1.45;0.93;;;9.60;94.60;;;;;;5087148;28;20033;-83
2023/01/14 13:13:00;;;;;;;1.08;0.77;;;9.60;94.70;;;;;;5081669;28;20038;-84
2023/01/14 13:15:31;;;;;;;1.30;0.90;;;9.70;91.00;;;;;;5085135;28;20059;-83
2023/01/14 13:18:02;;;;;;;4.70;1.33;;;9.70;91.50;;;;;;5087246;28;20037;-85
2023/01/14 13:20:36;;;;;;;1.20;0.80;;;9.70;91.10;;;;;;5087683;28;20374;-84
2023/01/14 13:23:10;;;;;;;1.85;0.77;;;9.60;90.30;;;;;;5085361;28;20033;-85
2023/01/14 13:25:44;;;;;;;1.63;0.90;;;9.60;85.00;;;;;;5079122;28;20028;-85
2023/01/14 13:28:09;;;;;;;0.80;0.80;;;9.70;88.10;;;;;;5091182;28;20040;-85
2023/01/14 13:30:51;;;;;;;1.48;0.80;;;9.60;87.60;;;;;;5088837;28;20037;-85
2023/01/14 13:33:42;;;;;;;1.13;0.77;;;9.70;87.30;;;;;;5077940;28;20018;-86
2023/01/14 13:36:11;;;;;;;5.18;1.10;;;9.70;90.20;;;;;;5103106;28;20103;-87
2023/01/14 13:38:48;;;;;;;0.60;0.60;;;9.60;86.20;;;;;;5087725;28;20543;-80
2023/01/14 13:41:34;;;;;;;0.73;0.73;;;9.70;82.70;;;;;;5085786;28;20041;-80
2023/01/14 13:44:01;;;;;;;4.88;1.13;;;9.70;84.30;;;;;;5084622;28;20031;-83
2023/01/14 13:46:37;;;;;;;1.08;1.00;;;9.70;81.20;;;;;;5083138;28;20025;-80
2023/01/14 13:49:05;;;;;;;1.88;1.10;;;;;;;;;;5089343;28;20072;-81
2023/01/14 13:51:41;;;;;;;1.83;0.93;;;;;;;;;;5085565;28;20037;-82
2023/01/14 13:54:10;;;;;;;2.42;1.13;;;;;;;;;;5080752;28;20024;-83